Terminal Aerodrome Forecast
Issued by NWS

Home | Current Version | Previous Version | Text Only | Print | Product List | Glossary On
Versions: 1 2 3 4 5 6 7 8 9 10 11 12 13 14 15 16 17 18 19 20 21 22 23 24 25 26 27 28 29 30 31 32 33 34 35 36 37 38 39 40
000
FTUS45 KBOU 261139
TAFAPA
TAF
KAPA 261139Z 2612/2712 18007KT P6SM BKN250
     FM261400 24006KT P6SM FEW140 SCT250
     FM261700 21010KT P6SM FEW100 SCT140 BKN220
     FM262000 18014G22KT P6SM FEW090 SCT140 BKN180
     FM270300 25012KT P6SM SCT090 BKN130
     FM270500 20014KT P6SM FEW090 SCT120 BKN180=

USA.gov is the U.S. government's official web portal to all federal, state and local government web resources and services.